createdAt,value
2023-04-06T00:02:13.390Z,7.90
2023-04-06T00:07:15.534Z,7.90
2023-04-06T00:12:17.551Z,7.80
2023-04-06T00:17:19.482Z,7.80
2023-04-06T00:22:21.479Z,7.80
2023-04-06T00:27:23.499Z,7.80
2023-04-06T00:32:25.491Z,7.80
2023-04-06T00:37:27.406Z,7.70
2023-04-06T00:42:29.637Z,7.70
2023-04-06T00:47:31.753Z,7.60
2023-04-06T00:52:35.428Z,7.50
2023-04-06T00:57:37.913Z,7.40
2023-04-06T01:02:40.358Z,7.30
2023-04-06T01:07:43.486Z,7.20
2023-04-06T01:12:50.170Z,7.10
2023-04-06T01:18:01.945Z,7.10
2023-04-06T01:23:04.381Z,7.00
2023-04-06T01:28:07.780Z,7.00
2023-04-06T01:33:29.995Z,6.90
2023-04-06T01:38:36.665Z,6.70
2023-04-06T01:43:40.634Z,6.80
2023-04-06T01:48:45.408Z,6.80
2023-04-06T01:53:56.323Z,6.70
2023-04-06T01:59:06.060Z,6.60
2023-04-06T02:04:15.119Z,6.60
2023-04-06T02:09:18.902Z,6.60
2023-04-06T02:14:21.492Z,6.50
2023-04-06T02:19:27.903Z,6.40
2023-04-06T02:24:29.806Z,6.40
2023-04-06T02:29:31.634Z,6.40
2023-04-06T02:34:33.609Z,6.40
2023-04-06T02:39:36.099Z,6.50
2023-04-06T02:44:40.873Z,6.40
2023-04-06T02:49:44.664Z,6.40
2023-04-06T02:54:47.313Z,6.30
2023-04-06T02:59:50.440Z,6.30
2023-04-06T03:05:01.944Z,6.20
2023-04-06T03:10:10.793Z,6.10
2023-04-06T03:15:12.815Z,6.10
2023-04-06T03:20:19.470Z,6.10
2023-04-06T03:25:21.419Z,6.10
2023-04-06T03:30:23.608Z,6.00
2023-04-06T03:35:25.967Z,5.90
2023-04-06T03:40:27.884Z,5.90
2023-04-06T03:45:29.775Z,5.90
2023-04-06T03:50:32.648Z,5.80
2023-04-06T03:55:34.831Z,5.70
2023-04-06T04:00:36.811Z,5.70
2023-04-06T04:05:38.731Z,5.70
2023-04-06T04:10:40.828Z,5.60
2023-04-06T04:15:42.757Z,5.60
2023-04-06T04:20:44.945Z,5.50
2023-04-06T04:25:48.021Z,5.50
2023-04-06T04:30:49.893Z,5.40
2023-04-06T04:35:52.061Z,5.30
2023-04-06T04:40:56.925Z,5.20
2023-04-06T04:46:00.230Z,5.20
2023-04-06T04:51:11.845Z,5.10
2023-04-06T04:56:26.288Z,5.00
2023-04-06T05:01:43.753Z,4.80
2023-04-06T05:07:07.750Z,4.80
2023-04-06T05:12:11.771Z,4.80
2023-04-06T05:17:23.808Z,4.90
2023-04-06T05:22:26.321Z,4.90
2023-04-06T05:27:42.192Z,4.90
2023-04-06T05:32:58.238Z,4.90
2023-04-06T05:38:03.474Z,4.80
2023-04-06T05:43:05.651Z,4.80
2023-04-06T05:48:08.796Z,4.80
2023-04-06T05:53:13.964Z,4.90
2023-04-06T05:58:20.767Z,4.90
2023-04-06T06:03:24.846Z,4.90
2023-04-06T06:08:31.028Z,5.00
2023-04-06T06:13:35.866Z,5.10
2023-04-06T06:18:37.965Z,5.20
2023-04-06T06:23:40.583Z,5.30
2023-04-06T06:28:42.730Z,5.40
2023-04-06T06:33:48.750Z,5.50
2023-04-06T06:38:50.914Z,5.60
2023-04-06T06:43:54.789Z,5.80
2023-04-06T06:48:56.833Z,5.90
2023-04-06T06:53:58.773Z,6.00
2023-04-06T06:59:00.837Z,6.10
2023-04-06T07:04:03.095Z,6.20
2023-04-06T07:09:05.180Z,6.40
2023-04-06T07:14:07.636Z,6.40
2023-04-06T07:19:10.568Z,6.50
2023-04-06T07:24:12.524Z,6.70
2023-04-06T07:29:14.504Z,6.90
2023-04-06T07:34:16.758Z,7.10
2023-04-06T07:39:19.369Z,7.30
2023-04-06T07:44:21.913Z,7.50
2023-04-06T07:49:25.343Z,7.70
2023-04-06T07:54:27.517Z,7.90
2023-04-06T07:59:29.491Z,8.10
2023-04-06T08:04:31.546Z,8.30
2023-04-06T08:09:33.483Z,8.40
2023-04-06T08:14:35.873Z,8.50
2023-04-06T08:19:38.404Z,8.60
2023-04-06T08:24:40.424Z,8.80
2023-04-06T08:29:42.635Z,9.00
2023-04-06T08:34:44.625Z,9.60
2023-04-06T08:39:46.548Z,10.10
2023-04-06T08:44:54.688Z,10.70
2023-04-06T08:49:57.602Z,11.30
2023-04-06T08:54:59.568Z,12.00
2023-04-06T09:00:02.108Z,12.50
2023-04-06T09:05:04.542Z,12.70
2023-04-06T09:10:07.750Z,13.10
2023-04-06T09:15:24.642Z,13.00
2023-04-06T09:20:29.142Z,12.90
2023-04-06T09:25:32.828Z,12.90
2023-04-06T09:30:36.792Z,13.10
2023-04-06T09:35:38.682Z,13.20
2023-04-06T09:41:00.634Z,13.40
2023-04-06T09:46:05.387Z,13.50
2023-04-06T09:51:08.096Z,13.60
2023-04-06T09:56:14.324Z,13.40
2023-04-06T10:01:20.495Z,13.40
2023-04-06T10:06:27.306Z,13.70
2023-04-06T10:11:30.492Z,13.70
2023-04-06T10:16:32.856Z,13.90
2023-04-06T10:21:37.290Z,14.20
2023-04-06T10:26:39.409Z,14.60
2023-04-06T10:31:44.295Z,14.80
2023-04-06T10:36:46.297Z,14.90
2023-04-06T10:41:49.476Z,15.10
2023-04-06T10:46:58.987Z,15.30
2023-04-06T10:52:00.975Z,15.40
2023-04-06T10:57:02.890Z,15.20
2023-04-06T11:02:04.773Z,15.30
2023-04-06T11:07:06.697Z,15.40
2023-04-06T11:12:08.621Z,15.60
2023-04-06T11:17:10.765Z,15.70
2023-04-06T11:22:12.768Z,15.80
2023-04-06T11:27:17.146Z,16.10
2023-04-06T11:32:24.084Z,16.20
2023-04-06T11:37:29.095Z,16.40
2023-04-06T11:42:31.184Z,16.50
2023-04-06T11:47:38.535Z,16.50
2023-04-06T11:52:41.923Z,16.60
2023-04-06T11:57:44.421Z,16.60
2023-04-06T12:02:50.458Z,16.80
2023-04-06T12:07:52.410Z,16.90
2023-04-06T12:12:54.321Z,16.80
2023-04-06T12:17:56.301Z,16.90
2023-04-06T12:22:58.297Z,17.10
2023-04-06T12:28:00.465Z,17.10
2023-04-06T12:33:02.562Z,17.30
2023-04-06T12:38:04.488Z,17.40
2023-04-06T12:43:06.707Z,17.50
2023-04-06T12:48:08.747Z,17.50
2023-04-06T12:53:10.691Z,17.50
2023-04-06T12:58:12.696Z,17.40
2023-04-06T13:03:14.634Z,17.50
2023-04-06T13:08:17.767Z,17.60
2023-04-06T13:13:25.967Z,17.70
2023-04-06T13:18:28.110Z,18.00
2023-04-06T13:23:30.148Z,18.10
2023-04-06T13:28:36.321Z,18.20
2023-04-06T13:33:39.544Z,18.40
2023-04-06T13:38:42.535Z,18.50
2023-04-06T13:43:44.760Z,18.50
2023-04-06T13:48:48.089Z,18.40
2023-04-06T13:53:53.609Z,18.40
2023-04-06T13:58:57.089Z,18.20
2023-04-06T14:03:59.154Z,18.10
2023-04-06T14:09:01.367Z,18.00
2023-04-06T14:14:03.454Z,17.90
2023-04-06T14:19:05.356Z,18.00
2023-04-06T14:24:09.183Z,18.00
2023-04-06T14:29:11.517Z,18.00
2023-04-06T14:34:13.487Z,17.90
2023-04-06T14:39:15.704Z,17.80
2023-04-06T14:44:17.814Z,17.90
2023-04-06T14:49:19.811Z,17.90
2023-04-06T14:54:21.962Z,17.80
2023-04-06T14:59:23.996Z,17.90
2023-04-06T15:04:26.194Z,17.80
2023-04-06T15:09:28.208Z,17.70
2023-04-06T15:14:30.537Z,17.60
2023-04-06T15:19:32.476Z,17.60
2023-04-06T15:24:34.474Z,17.40
2023-04-06T15:29:36.632Z,17.40
2023-04-06T15:34:38.850Z,17.40
2023-04-06T15:39:41.130Z,17.50
2023-04-06T15:44:46.259Z,17.50
2023-04-06T15:49:48.627Z,17.60
2023-04-06T15:54:50.889Z,17.60
2023-04-06T15:59:55.237Z,17.50
2023-04-06T16:04:58.539Z,17.50
2023-04-06T16:10:00.569Z,17.50
2023-04-06T16:15:02.769Z,17.50
2023-04-06T16:20:05.475Z,17.50
2023-04-06T16:25:07.724Z,17.40
2023-04-06T16:30:10.594Z,17.40
2023-04-06T16:35:12.662Z,17.40
2023-04-06T16:40:15.192Z,17.40
2023-04-06T16:45:17.524Z,17.10
2023-04-06T16:50:20.001Z,17.20
2023-04-06T16:55:22.020Z,17.10
2023-04-06T17:00:24.323Z,16.90
2023-04-06T17:05:27.496Z,16.80
2023-04-06T17:10:34.121Z,16.60
2023-04-06T17:15:43.419Z,16.40
2023-04-06T17:20:46.794Z,16.30
2023-04-06T17:25:48.775Z,16.30
2023-04-06T17:30:51.138Z,16.20
2023-04-06T17:35:54.048Z,16.20
2023-04-06T17:40:56.254Z,16.20
2023-04-06T17:45:58.345Z,16.10
2023-04-06T17:51:00.486Z,16.00
2023-04-06T17:56:03.806Z,16.00
2023-04-06T18:01:08.447Z,16.00
2023-04-06T18:06:15.908Z,15.90
2023-04-06T18:11:19.268Z,15.90
2023-04-06T18:16:21.785Z,16.00
2023-04-06T18:21:23.970Z,15.90
2023-04-06T18:26:26.505Z,15.80
2023-04-06T18:31:28.632Z,15.80
2023-04-06T18:36:32.034Z,15.80
2023-04-06T18:41:35.214Z,15.70
2023-04-06T18:46:37.780Z,15.70
2023-04-06T18:51:41.624Z,15.60
2023-04-06T18:56:43.685Z,15.50
2023-04-06T19:01:50.984Z,15.40
2023-04-06T19:06:53.304Z,15.30
2023-04-06T19:11:55.443Z,15.20
2023-04-06T19:16:57.720Z,15.10
2023-04-06T19:22:01.572Z,15.10
2023-04-06T19:27:03.727Z,15.10
2023-04-06T19:32:07.932Z,15.00
2023-04-06T19:37:09.970Z,15.00
2023-04-06T19:42:13.062Z,15.00
2023-04-06T19:47:14.951Z,14.90
2023-04-06T19:52:16.848Z,14.70
2023-04-06T19:57:18.699Z,14.60
2023-04-06T20:02:20.865Z,14.50
2023-04-06T20:07:22.970Z,14.30
2023-04-06T20:12:24.824Z,14.30
2023-04-06T20:17:26.724Z,14.20
2023-04-06T20:22:28.583Z,14.30
2023-04-06T20:27:30.411Z,14.20
2023-04-06T20:32:33.309Z,14.10
2023-04-06T20:37:37.826Z,14.00
2023-04-06T20:42:40.066Z,14.00
2023-04-06T20:47:42.403Z,14.00
2023-04-06T20:52:44.469Z,13.90
2023-04-06T20:57:46.505Z,13.90
2023-04-06T21:02:48.669Z,13.80
2023-04-06T21:07:50.758Z,13.70
2023-04-06T21:12:52.553Z,13.50
2023-04-06T21:17:54.448Z,13.40
2023-04-06T21:22:56.567Z,13.40
2023-04-06T21:27:58.586Z,13.30
2023-04-06T21:33:00.534Z,13.10
2023-04-06T21:38:02.462Z,13.10
2023-04-06T21:43:04.635Z,13.20
2023-04-06T21:48:07.114Z,13.10
2023-04-06T21:53:09.470Z,12.90
2023-04-06T21:58:12.091Z,12.80
2023-04-06T22:03:14.084Z,12.60
2023-04-06T22:08:25.474Z,12.50
2023-04-06T22:13:32.167Z,12.50
2023-04-06T22:18:36.621Z,12.40
2023-04-06T22:23:42.496Z,12.30
2023-04-06T22:28:44.591Z,12.00
2023-04-06T22:33:46.774Z,11.90
2023-04-06T22:38:50.856Z,12.00
2023-04-06T22:43:52.737Z,11.60
2023-04-06T22:48:54.678Z,11.60
2023-04-06T22:53:56.482Z,11.80
2023-04-06T22:58:58.334Z,11.80
2023-04-06T23:04:00.406Z,11.90
2023-04-06T23:09:02.359Z,11.90
2023-04-06T23:14:04.258Z,12.00
2023-04-06T23:19:06.339Z,12.10
2023-04-06T23:24:08.211Z,12.20
2023-04-06T23:29:10.007Z,12.30
2023-04-06T23:34:11.830Z,12.40
2023-04-06T23:39:13.694Z,12.50
2023-04-06T23:44:15.667Z,12.50
2023-04-06T23:49:17.511Z,12.50
2023-04-06T23:54:19.380Z,12.50
2023-04-06T23:59:21.166Z,12.50
